sensor_id;sensor_type;location;lat;lon;timestamp;P1;durP1;ratioP1;P2;durP2;ratioP2
26622;SDS011;14254;50.968;5.366;2023-04-25T00:00:26;21.65;;;5.57;;
26622;SDS011;14254;50.968;5.366;2023-04-25T00:02:51;24.63;;;5.40;;
26622;SDS011;14254;50.968;5.366;2023-04-25T00:05:17;22.85;;;5.63;;
26622;SDS011;14254;50.968;5.366;2023-04-25T00:07:44;19.88;;;5.25;;
26622;SDS011;14254;50.968;5.366;2023-04-25T00:10:11;17.33;;;5.47;;
26622;SDS011;14254;50.968;5.366;2023-04-25T00:12:37;21.77;;;6.00;;
26622;SDS011;14254;50.968;5.366;2023-04-25T00:15:04;23.35;;;6.05;;
26622;SDS011;14254;50.968;5.366;2023-04-25T00:17:30;23.30;;;5.78;;
26622;SDS011;14254;50.968;5.366;2023-04-25T00:19:56;28.42;;;7.25;;
26622;SDS011;14254;50.968;5.366;2023-04-25T00:22:23;26.92;;;6.72;;
26622;SDS011;14254;50.968;5.366;2023-04-25T00:24:48;30.20;;;6.95;;
26622;SDS011;14254;50.968;5.366;2023-04-25T00:27:15;21.70;;;6.28;;
26622;SDS011;14254;50.968;5.366;2023-04-25T00:29:40;21.55;;;5.80;;
26622;SDS011;14254;50.968;5.366;2023-04-25T00:32:06;16.25;;;5.90;;
26622;SDS011;14254;50.968;5.366;2023-04-25T00:34:31;19.05;;;6.03;;
26622;SDS011;14254;50.968;5.366;2023-04-25T00:36:57;30.20;;;6.40;;
26622;SDS011;14254;50.968;5.366;2023-04-25T00:39:23;29.00;;;6.60;;
26622;SDS011;14254;50.968;5.366;2023-04-25T00:41:49;33.10;;;6.57;;
26622;SDS011;14254;50.968;5.366;2023-04-25T00:44:18;21.83;;;6.25;;
26622;SDS011;14254;50.968;5.366;2023-04-25T00:46:44;18.27;;;5.50;;
26622;SDS011;14254;50.968;5.366;2023-04-25T00:49:12;18.58;;;6.15;;
26622;SDS011;14254;50.968;5.366;2023-04-25T00:51:40;17.83;;;6.03;;
26622;SDS011;14254;50.968;5.366;2023-04-25T00:54:06;20.63;;;6.38;;
26622;SDS011;14254;50.968;5.366;2023-04-25T00:56:32;22.83;;;6.43;;
26622;SDS011;14254;50.968;5.366;2023-04-25T00:58:58;25.38;;;6.68;;
26622;SDS011;14254;50.968;5.366;2023-04-25T01:01:24;22.98;;;6.72;;
26622;SDS011;14254;50.968;5.366;2023-04-25T01:03:50;18.73;;;5.88;;
26622;SDS011;14254;50.968;5.366;2023-04-25T01:06:17;23.08;;;6.60;;
26622;SDS011;14254;50.968;5.366;2023-04-25T01:08:43;30.42;;;6.45;;
26622;SDS011;14254;50.968;5.366;2023-04-25T01:11:08;22.35;;;5.80;;
26622;SDS011;14254;50.968;5.366;2023-04-25T01:13:34;34.25;;;6.43;;
26622;SDS011;14254;50.968;5.366;2023-04-25T01:16:01;22.40;;;6.15;;
26622;SDS011;14254;50.968;5.366;2023-04-25T01:18:27;21.60;;;5.40;;
26622;SDS011;14254;50.968;5.366;2023-04-25T01:20:54;29.70;;;6.82;;
26622;SDS011;14254;50.968;5.366;2023-04-25T01:23:21;28.45;;;7.22;;
26622;SDS011;14254;50.968;5.366;2023-04-25T01:25:47;28.00;;;6.28;;
26622;SDS011;14254;50.968;5.366;2023-04-25T01:28:13;28.45;;;7.72;;
26622;SDS011;14254;50.968;5.366;2023-04-25T01:30:40;22.50;;;7.22;;
26622;SDS011;14254;50.968;5.366;2023-04-25T01:33:06;18.50;;;6.15;;
26622;SDS011;14254;50.968;5.366;2023-04-25T01:35:33;23.85;;;6.10;;
26622;SDS011;14254;50.968;5.366;2023-04-25T01:37:58;18.35;;;7.05;;
26622;SDS011;14254;50.968;5.366;2023-04-25T01:40:24;22.58;;;5.95;;
26622;SDS011;14254;50.968;5.366;2023-04-25T01:42:50;20.88;;;6.20;;
26622;SDS011;14254;50.968;5.366;2023-04-25T01:45:17;24.95;;;6.55;;
26622;SDS011;14254;50.968;5.366;2023-04-25T01:47:43;21.92;;;5.57;;
26622;SDS011;14254;50.968;5.366;2023-04-25T01:50:13;16.45;;;5.82;;
26622;SDS011;14254;50.968;5.366;2023-04-25T01:52:40;26.33;;;7.55;;
26622;SDS011;14254;50.968;5.366;2023-04-25T01:55:05;29.65;;;6.53;;
26622;SDS011;14254;50.968;5.366;2023-04-25T01:57:31;13.93;;;5.35;;
26622;SDS011;14254;50.968;5.366;2023-04-25T01:59:58;21.63;;;6.25;;
26622;SDS011;14254;50.968;5.366;2023-04-25T02:02:26;23.65;;;6.45;;
26622;SDS011;14254;50.968;5.366;2023-04-25T02:04:51;24.85;;;6.72;;
26622;SDS011;14254;50.968;5.366;2023-04-25T02:07:17;27.77;;;6.65;;
26622;SDS011;14254;50.968;5.366;2023-04-25T02:09:43;25.92;;;6.18;;
26622;SDS011;14254;50.968;5.366;2023-04-25T02:12:09;26.85;;;6.03;;
26622;SDS011;14254;50.968;5.366;2023-04-25T02:14:35;30.58;;;7.15;;
26622;SDS011;14254;50.968;5.366;2023-04-25T02:17:01;27.15;;;7.18;;
26622;SDS011;14254;50.968;5.366;2023-04-25T02:19:27;19.13;;;6.25;;
26622;SDS011;14254;50.968;5.366;2023-04-25T02:21:53;25.17;;;6.78;;
26622;SDS011;14254;50.968;5.366;2023-04-25T02:24:19;29.83;;;6.95;;
26622;SDS011;14254;50.968;5.366;2023-04-25T02:26:45;21.00;;;7.00;;
26622;SDS011;14254;50.968;5.366;2023-04-25T02:29:11;22.30;;;6.40;;
26622;SDS011;14254;50.968;5.366;2023-04-25T02:31:37;26.60;;;6.82;;
26622;SDS011;14254;50.968;5.366;2023-04-25T02:34:03;24.63;;;6.78;;
26622;SDS011;14254;50.968;5.366;2023-04-25T02:36:29;25.23;;;7.43;;
26622;SDS011;14254;50.968;5.366;2023-04-25T02:38:59;29.60;;;6.68;;
26622;SDS011;14254;50.968;5.366;2023-04-25T02:41:25;29.35;;;8.98;;
26622;SDS011;14254;50.968;5.366;2023-04-25T02:43:51;26.77;;;6.65;;
26622;SDS011;14254;50.968;5.366;2023-04-25T02:46:16;23.35;;;6.38;;
26622;SDS011;14254;50.968;5.366;2023-04-25T02:48:42;28.73;;;6.80;;
26622;SDS011;14254;50.968;5.366;2023-04-25T02:51:08;26.15;;;7.43;;
26622;SDS011;14254;50.968;5.366;2023-04-25T02:53:34;30.58;;;7.63;;
26622;SDS011;14254;50.968;5.366;2023-04-25T02:56:00;23.77;;;7.28;;
26622;SDS011;14254;50.968;5.366;2023-04-25T02:58:26;27.17;;;6.97;;
26622;SDS011;14254;50.968;5.366;2023-04-25T03:00:52;22.52;;;7.15;;
26622;SDS011;14254;50.968;5.366;2023-04-25T03:03:18;31.27;;;7.57;;
26622;SDS011;14254;50.968;5.366;2023-04-25T03:05:46;23.45;;;8.00;;
26622;SDS011;14254;50.968;5.366;2023-04-25T03:08:15;17.17;;;6.53;;
26622;SDS011;14254;50.968;5.366;2023-04-25T03:10:41;27.38;;;8.73;;
26622;SDS011;14254;50.968;5.366;2023-04-25T03:13:07;26.98;;;7.68;;
26622;SDS011;14254;50.968;5.366;2023-04-25T03:15:34;34.50;;;8.60;;
26622;SDS011;14254;50.968;5.366;2023-04-25T03:18:00;29.20;;;8.32;;
26622;SDS011;14254;50.968;5.366;2023-04-25T03:20:26;34.22;;;8.43;;
26622;SDS011;14254;50.968;5.366;2023-04-25T03:22:51;25.52;;;7.65;;
26622;SDS011;14254;50.968;5.366;2023-04-25T03:25:17;32.95;;;8.95;;
26622;SDS011;14254;50.968;5.366;2023-04-25T03:27:43;35.13;;;8.05;;
26622;SDS011;14254;50.968;5.366;2023-04-25T03:30:08;25.60;;;8.45;;
26622;SDS011;14254;50.968;5.366;2023-04-25T03:32:34;31.00;;;7.53;;
26622;SDS011;14254;50.968;5.366;2023-04-25T03:35:00;20.30;;;8.15;;
26622;SDS011;14254;50.968;5.366;2023-04-25T03:37:26;27.75;;;7.38;;
26622;SDS011;14254;50.968;5.366;2023-04-25T03:39:51;23.55;;;7.57;;
26622;SDS011;14254;50.968;5.366;2023-04-25T03:42:17;29.02;;;7.95;;
26622;SDS011;14254;50.968;5.366;2023-04-25T03:44:43;29.38;;;7.55;;
26622;SDS011;14254;50.968;5.366;2023-04-25T03:47:08;23.10;;;7.88;;
26622;SDS011;14254;50.968;5.366;2023-04-25T03:49:34;28.55;;;8.60;;
26622;SDS011;14254;50.968;5.366;2023-04-25T03:52:01;20.92;;;7.63;;
26622;SDS011;14254;50.968;5.366;2023-04-25T03:54:27;29.08;;;8.02;;
26622;SDS011;14254;50.968;5.366;2023-04-25T03:56:53;41.33;;;10.27;;
26622;SDS011;14254;50.968;5.366;2023-04-25T03:59:18;19.48;;;8.43;;
26622;SDS011;14254;50.968;5.366;2023-04-25T04:01:44;21.30;;;7.95;;
26622;SDS011;14254;50.968;5.366;2023-04-25T04:04:10;28.17;;;8.20;;
26622;SDS011;14254;50.968;5.366;2023-04-25T04:06:35;27.42;;;9.27;;
26622;SDS011;14254;50.968;5.366;2023-04-25T04:09:01;31.63;;;9.50;;
26622;SDS011;14254;50.968;5.366;2023-04-25T04:11:28;25.92;;;7.88;;
26622;SDS011;14254;50.968;5.366;2023-04-25T04:13:53;28.27;;;9.48;;
26622;SDS011;14254;50.968;5.366;2023-04-25T04:16:19;33.80;;;8.13;;
26622;SDS011;14254;50.968;5.366;2023-04-25T04:18:45;32.75;;;8.68;;
26622;SDS011;14254;50.968;5.366;2023-04-25T04:21:11;31.48;;;8.70;;
26622;SDS011;14254;50.968;5.366;2023-04-25T04:23:37;29.27;;;8.18;;
26622;SDS011;14254;50.968;5.366;2023-04-25T04:26:02;21.73;;;6.32;;
26622;SDS011;14254;50.968;5.366;2023-04-25T04:28:28;26.33;;;7.25;;
26622;SDS011;14254;50.968;5.366;2023-04-25T04:30:54;34.38;;;8.18;;
26622;SDS011;14254;50.968;5.366;2023-04-25T04:33:20;20.70;;;6.82;;
26622;SDS011;14254;50.968;5.366;2023-04-25T04:35:48;30.35;;;7.45;;
26622;SDS011;14254;50.968;5.366;2023-04-25T04:38:17;22.10;;;6.28;;
26622;SDS011;14254;50.968;5.366;2023-04-25T04:40:43;22.05;;;6.80;;
26622;SDS011;14254;50.968;5.366;2023-04-25T04:43:09;26.17;;;7.25;;
26622;SDS011;14254;50.968;5.366;2023-04-25T04:45:35;22.55;;;5.10;;
26622;SDS011;14254;50.968;5.366;2023-04-25T04:48:03;25.40;;;6.30;;
26622;SDS011;14254;50.968;5.366;2023-04-25T04:50:30;13.93;;;4.95;;
26622;SDS011;14254;50.968;5.366;2023-04-25T04:52:57;19.42;;;4.97;;
26622;SDS011;14254;50.968;5.366;2023-04-25T04:55:23;21.83;;;5.85;;
26622;SDS011;14254;50.968;5.366;2023-04-25T04:57:49;28.25;;;5.65;;
26622;SDS011;14254;50.968;5.366;2023-04-25T05:00:15;24.40;;;5.65;;
26622;SDS011;14254;50.968;5.366;2023-04-25T05:02:41;19.55;;;4.97;;
26622;SDS011;14254;50.968;5.366;2023-04-25T05:05:06;21.42;;;6.20;;
26622;SDS011;14254;50.968;5.366;2023-04-25T05:07:33;22.58;;;5.03;;
26622;SDS011;14254;50.968;5.366;2023-04-25T05:09:58;17.15;;;5.32;;
26622;SDS011;14254;50.968;5.366;2023-04-25T05:12:24;25.05;;;6.43;;
26622;SDS011;14254;50.968;5.366;2023-04-25T05:14:50;16.45;;;5.30;;
26622;SDS011;14254;50.968;5.366;2023-04-25T05:17:16;24.83;;;5.22;;
26622;SDS011;14254;50.968;5.366;2023-04-25T05:19:41;17.80;;;4.95;;
26622;SDS011;14254;50.968;5.366;2023-04-25T05:22:07;19.48;;;5.18;;
26622;SDS011;14254;50.968;5.366;2023-04-25T05:24:33;18.40;;;4.38;;
26622;SDS011;14254;50.968;5.366;2023-04-25T05:26:58;14.23;;;4.85;;
26622;SDS011;14254;50.968;5.366;2023-04-25T05:29:24;19.48;;;4.47;;
26622;SDS011;14254;50.968;5.366;2023-04-25T05:31:50;17.13;;;4.45;;
26622;SDS011;14254;50.968;5.366;2023-04-25T05:34:15;17.70;;;4.32;;
26622;SDS011;14254;50.968;5.366;2023-04-25T05:36:41;17.25;;;5.45;;
26622;SDS011;14254;50.968;5.366;2023-04-25T05:39:07;19.45;;;4.85;;
26622;SDS011;14254;50.968;5.366;2023-04-25T05:41:33;13.27;;;4.10;;
26622;SDS011;14254;50.968;5.366;2023-04-25T05:43:59;23.17;;;4.88;;
26622;SDS011;14254;50.968;5.366;2023-04-25T05:46:25;23.25;;;5.45;;
26622;SDS011;14254;50.968;5.366;2023-04-25T05:48:50;19.92;;;5.00;;
26622;SDS011;14254;50.968;5.366;2023-04-25T05:51:16;15.85;;;4.75;;
26622;SDS011;14254;50.968;5.366;2023-04-25T05:53:43;14.15;;;4.43;;
26622;SDS011;14254;50.968;5.366;2023-04-25T05:56:09;24.25;;;5.88;;
26622;SDS011;14254;50.968;5.366;2023-04-25T05:58:35;13.55;;;4.13;;
26622;SDS011;14254;50.968;5.366;2023-04-25T06:01:01;19.60;;;4.65;;
26622;SDS011;14254;50.968;5.366;2023-04-25T06:03:27;17.77;;;4.30;;
26622;SDS011;14254;50.968;5.366;2023-04-25T06:05:53;19.42;;;5.13;;
26622;SDS011;14254;50.968;5.366;2023-04-25T06:08:19;18.58;;;4.22;;
26622;SDS011;14254;50.968;5.366;2023-04-25T06:10:44;19.98;;;4.38;;
26622;SDS011;14254;50.968;5.366;2023-04-25T06:13:10;21.50;;;4.80;;
26622;SDS011;14254;50.968;5.366;2023-04-25T06:15:36;22.42;;;5.53;;
26622;SDS011;14254;50.968;5.366;2023-04-25T06:18:02;23.10;;;5.15;;
26622;SDS011;14254;50.968;5.366;2023-04-25T06:20:28;18.45;;;4.28;;
26622;SDS011;14254;50.968;5.366;2023-04-25T06:22:53;17.80;;;4.95;;
26622;SDS011;14254;50.968;5.366;2023-04-25T06:25:19;19.25;;;4.60;;
26622;SDS011;14254;50.968;5.366;2023-04-25T06:27:45;20.25;;;5.75;;
26622;SDS011;14254;50.968;5.366;2023-04-25T06:30:11;22.70;;;5.13;;
26622;SDS011;14254;50.968;5.366;2023-04-25T06:32:37;22.33;;;4.70;;
26622;SDS011;14254;50.968;5.366;2023-04-25T06:35:03;21.85;;;5.60;;
26622;SDS011;14254;50.968;5.366;2023-04-25T06:37:30;22.25;;;6.10;;
26622;SDS011;14254;50.968;5.366;2023-04-25T06:39:55;26.35;;;5.20;;
26622;SDS011;14254;50.968;5.366;2023-04-25T06:42:21;19.08;;;4.65;;
26622;SDS011;14254;50.968;5.366;2023-04-25T06:44:47;26.98;;;5.25;;
26622;SDS011;14254;50.968;5.366;2023-04-25T06:47:13;26.48;;;5.68;;
26622;SDS011;14254;50.968;5.366;2023-04-25T06:49:39;20.92;;;4.95;;
26622;SDS011;14254;50.968;5.366;2023-04-25T06:52:04;24.15;;;6.70;;
26622;SDS011;14254;50.968;5.366;2023-04-25T06:54:30;20.92;;;4.97;;
26622;SDS011;14254;50.968;5.366;2023-04-25T06:56:56;26.88;;;6.30;;
26622;SDS011;14254;50.968;5.366;2023-04-25T06:59:22;24.52;;;6.10;;
26622;SDS011;14254;50.968;5.366;2023-04-25T07:01:48;23.70;;;6.07;;
26622;SDS011;14254;50.968;5.366;2023-04-25T07:04:13;23.25;;;5.93;;
26622;SDS011;14254;50.968;5.366;2023-04-25T07:06:39;27.27;;;6.90;;
26622;SDS011;14254;50.968;5.366;2023-04-25T07:09:10;21.05;;;5.80;;
26622;SDS011;14254;50.968;5.366;2023-04-25T07:11:37;31.25;;;7.10;;
26622;SDS011;14254;50.968;5.366;2023-04-25T07:14:02;32.92;;;6.63;;
26622;SDS011;14254;50.968;5.366;2023-04-25T07:16:28;21.65;;;5.43;;
26622;SDS011;14254;50.968;5.366;2023-04-25T07:18:54;24.80;;;5.95;;
26622;SDS011;14254;50.968;5.366;2023-04-25T07:21:20;20.08;;;6.07;;
26622;SDS011;14254;50.968;5.366;2023-04-25T07:23:46;27.52;;;6.28;;
26622;SDS011;14254;50.968;5.366;2023-04-25T07:26:12;22.85;;;6.10;;
26622;SDS011;14254;50.968;5.366;2023-04-25T07:28:38;21.13;;;6.25;;
26622;SDS011;14254;50.968;5.366;2023-04-25T07:31:03;21.83;;;5.90;;
26622;SDS011;14254;50.968;5.366;2023-04-25T07:33:30;22.17;;;5.30;;
26622;SDS011;14254;50.968;5.366;2023-04-25T07:35:56;20.95;;;6.15;;
26622;SDS011;14254;50.968;5.366;2023-04-25T07:38:22;20.27;;;5.90;;
26622;SDS011;14254;50.968;5.366;2023-04-25T07:40:48;13.00;;;4.50;;
26622;SDS011;14254;50.968;5.366;2023-04-25T07:43:14;15.52;;;4.43;;
26622;SDS011;14254;50.968;5.366;2023-04-25T07:45:42;18.50;;;4.38;;
26622;SDS011;14254;50.968;5.366;2023-04-25T07:48:08;21.88;;;5.20;;
26622;SDS011;14254;50.968;5.366;2023-04-25T07:50:34;14.73;;;3.80;;
26622;SDS011;14254;50.968;5.366;2023-04-25T07:52:59;24.15;;;4.63;;
26622;SDS011;14254;50.968;5.366;2023-04-25T07:55:25;12.85;;;3.83;;
26622;SDS011;14254;50.968;5.366;2023-04-25T07:57:51;12.68;;;3.33;;
26622;SDS011;14254;50.968;5.366;2023-04-25T08:00:17;11.32;;;3.53;;
26622;SDS011;14254;50.968;5.366;2023-04-25T08:02:42;13.88;;;4.20;;
26622;SDS011;14254;50.968;5.366;2023-04-25T08:05:08;24.85;;;3.97;;
26622;SDS011;14254;50.968;5.366;2023-04-25T08:07:37;17.20;;;3.30;;
26622;SDS011;14254;50.968;5.366;2023-04-25T08:10:04;9.65;;;2.45;;
26622;SDS011;14254;50.968;5.366;2023-04-25T08:12:31;15.35;;;2.88;;
26622;SDS011;14254;50.968;5.366;2023-04-25T08:14:56;9.75;;;3.10;;
26622;SDS011;14254;50.968;5.366;2023-04-25T08:17:22;11.98;;;2.72;;
26622;SDS011;14254;50.968;5.366;2023-04-25T08:19:48;16.77;;;3.42;;
26622;SDS011;14254;50.968;5.366;2023-04-25T08:22:14;16.85;;;3.63;;
26622;SDS011;14254;50.968;5.366;2023-04-25T08:24:41;10.93;;;2.92;;
26622;SDS011;14254;50.968;5.366;2023-04-25T08:27:06;11.93;;;2.83;;
26622;SDS011;14254;50.968;5.366;2023-04-25T08:29:33;9.10;;;2.15;;
26622;SDS011;14254;50.968;5.366;2023-04-25T08:31:59;14.95;;;3.90;;
26622;SDS011;14254;50.968;5.366;2023-04-25T08:34:24;15.60;;;3.42;;
26622;SDS011;14254;50.968;5.366;2023-04-25T08:36:50;11.18;;;3.33;;
26622;SDS011;14254;50.968;5.366;2023-04-25T08:39:16;10.43;;;2.55;;
26622;SDS011;14254;50.968;5.366;2023-04-25T08:41:43;11.40;;;3.20;;
26622;SDS011;14254;50.968;5.366;2023-04-25T08:44:12;8.82;;;2.53;;
26622;SDS011;14254;50.968;5.366;2023-04-25T08:46:39;12.70;;;3.20;;
26622;SDS011;14254;50.968;5.366;2023-04-25T08:49:06;10.80;;;3.55;;
26622;SDS011;14254;50.968;5.366;2023-04-25T08:51:34;15.30;;;5.25;;
26622;SDS011;14254;50.968;5.366;2023-04-25T08:54:08;14.57;;;3.78;;
26622;SDS011;14254;50.968;5.366;2023-04-25T08:56:43;19.58;;;4.53;;
26622;SDS011;14254;50.968;5.366;2023-04-25T08:59:13;10.43;;;4.30;;
26622;SDS011;14254;50.968;5.366;2023-04-25T09:01:39;12.90;;;4.22;;
26622;SDS011;14254;50.968;5.366;2023-04-25T09:04:05;17.17;;;4.32;;
26622;SDS011;14254;50.968;5.366;2023-04-25T09:06:31;22.88;;;4.57;;
26622;SDS011;14254;50.968;5.366;2023-04-25T09:09:03;17.70;;;5.03;;
26622;SDS011;14254;50.968;5.366;2023-04-25T09:11:31;16.43;;;4.80;;
26622;SDS011;14254;50.968;5.366;2023-04-25T09:16:59;15.25;;;4.65;;
26622;SDS011;14254;50.968;5.366;2023-04-25T09:21:58;9.88;;;4.13;;
26622;SDS011;14254;50.968;5.366;2023-04-25T09:27:03;21.85;;;3.42;;
26622;SDS011;14254;50.968;5.366;2023-04-25T09:29:36;13.38;;;3.05;;
26622;SDS011;14254;50.968;5.366;2023-04-25T09:32:11;23.05;;;3.90;;
26622;SDS011;14254;50.968;5.366;2023-04-25T09:37:17;11.65;;;3.80;;
26622;SDS011;14254;50.968;5.366;2023-04-25T09:39:52;14.20;;;2.70;;
26622;SDS011;14254;50.968;5.366;2023-04-25T09:42:21;10.40;;;3.13;;
26622;SDS011;14254;50.968;5.366;2023-04-25T09:44:49;16.67;;;3.33;;
26622;SDS011;14254;50.968;5.366;2023-04-25T09:47:18;16.63;;;3.70;;
26622;SDS011;14254;50.968;5.366;2023-04-25T09:49:46;16.83;;;3.63;;
26622;SDS011;14254;50.968;5.366;2023-04-25T09:52:16;14.55;;;3.25;;
26622;SDS011;14254;50.968;5.366;2023-04-25T09:54:46;9.85;;;3.15;;
26622;SDS011;14254;50.968;5.366;2023-04-25T09:57:14;11.40;;;2.63;;
26622;SDS011;14254;50.968;5.366;2023-04-25T09:59:45;9.55;;;2.30;;
26622;SDS011;14254;50.968;5.366;2023-04-25T10:02:13;8.93;;;2.58;;
26622;SDS011;14254;50.968;5.366;2023-04-25T10:04:41;9.05;;;2.35;;
26622;SDS011;14254;50.968;5.366;2023-04-25T10:07:09;10.63;;;2.70;;
26622;SDS011;14254;50.968;5.366;2023-04-25T10:09:37;10.85;;;3.13;;
26622;SDS011;14254;50.968;5.366;2023-04-25T10:12:07;7.63;;;2.50;;
26622;SDS011;14254;50.968;5.366;2023-04-25T10:14:33;9.93;;;2.70;;
26622;SDS011;14254;50.968;5.366;2023-04-25T10:17:00;11.07;;;2.75;;
26622;SDS011;14254;50.968;5.366;2023-04-25T10:19:26;9.93;;;2.80;;
26622;SDS011;14254;50.968;5.366;2023-04-25T10:22:04;7.32;;;2.60;;
26622;SDS011;14254;50.968;5.366;2023-04-25T10:24:43;11.18;;;3.10;;
26622;SDS011;14254;50.968;5.366;2023-04-25T10:27:11;14.07;;;3.65;;
26622;SDS011;14254;50.968;5.366;2023-04-25T10:29:37;11.57;;;2.92;;
26622;SDS011;14254;50.968;5.366;2023-04-25T10:32:03;14.00;;;3.47;;
26622;SDS011;14254;50.968;5.366;2023-04-25T10:34:39;10.43;;;2.97;;
26622;SDS011;14254;50.968;5.366;2023-04-25T10:37:10;10.38;;;3.17;;
26622;SDS011;14254;50.968;5.366;2023-04-25T10:39:37;8.75;;;2.63;;
26622;SDS011;14254;50.968;5.366;2023-04-25T10:42:07;6.80;;;2.97;;
26622;SDS011;14254;50.968;5.366;2023-04-25T10:44:33;14.20;;;2.42;;
26622;SDS011;14254;50.968;5.366;2023-04-25T10:47:00;10.75;;;2.70;;
26622;SDS011;14254;50.968;5.366;2023-04-25T10:49:28;8.68;;;2.53;;
26622;SDS011;14254;50.968;5.366;2023-04-25T10:54:47;9.98;;;1.90;;
26622;SDS011;14254;50.968;5.366;2023-04-25T10:57:26;10.30;;;3.42;;
26622;SDS011;14254;50.968;5.366;2023-04-25T11:02:57;6.57;;;2.15;;
26622;SDS011;14254;50.968;5.366;2023-04-25T11:05:33;9.95;;;1.90;;
26622;SDS011;14254;50.968;5.366;2023-04-25T11:08:01;7.63;;;1.88;;
26622;SDS011;14254;50.968;5.366;2023-04-25T11:10:28;7.13;;;1.83;;
26622;SDS011;14254;50.968;5.366;2023-04-25T11:12:55;5.47;;;1.80;;
26622;SDS011;14254;50.968;5.366;2023-04-25T11:15:21;7.70;;;1.85;;
26622;SDS011;14254;50.968;5.366;2023-04-25T11:17:47;10.60;;;2.55;;
26622;SDS011;14254;50.968;5.366;2023-04-25T11:20:13;6.90;;;1.92;;
26622;SDS011;14254;50.968;5.366;2023-04-25T11:22:40;5.72;;;2.03;;
26622;SDS011;14254;50.968;5.366;2023-04-25T11:25:07;8.13;;;1.70;;
26622;SDS011;14254;50.968;5.366;2023-04-25T11:27:34;5.50;;;1.60;;
26622;SDS011;14254;50.968;5.366;2023-04-25T11:30:23;17.20;;;3.00;;
26622;SDS011;14254;50.968;5.366;2023-04-25T11:32:50;4.97;;;2.00;;
26622;SDS011;14254;50.968;5.366;2023-04-25T11:35:17;9.80;;;2.03;;
26622;SDS011;14254;50.968;5.366;2023-04-25T11:37:44;8.18;;;2.25;;
26622;SDS011;14254;50.968;5.366;2023-04-25T11:40:10;10.15;;;2.40;;
26622;SDS011;14254;50.968;5.366;2023-04-25T11:42:37;6.97;;;2.25;;
26622;SDS011;14254;50.968;5.366;2023-04-25T11:45:04;8.60;;;2.13;;
26622;SDS011;14254;50.968;5.366;2023-04-25T11:47:31;10.90;;;1.60;;
26622;SDS011;14254;50.968;5.366;2023-04-25T11:49:58;9.68;;;2.70;;
26622;SDS011;14254;50.968;5.366;2023-04-25T11:52:24;6.57;;;1.80;;
26622;SDS011;14254;50.968;5.366;2023-04-25T11:55:00;7.28;;;2.22;;
26622;SDS011;14254;50.968;5.366;2023-04-25T11:57:26;5.28;;;1.90;;
26622;SDS011;14254;50.968;5.366;2023-04-25T11:59:51;7.25;;;2.15;;
26622;SDS011;14254;50.968;5.366;2023-04-25T12:02:24;6.25;;;2.00;;
26622;SDS011;14254;50.968;5.366;2023-04-25T12:04:50;4.10;;;1.60;;
26622;SDS011;14254;50.968;5.366;2023-04-25T12:07:16;7.53;;;1.92;;
26622;SDS011;14254;50.968;5.366;2023-04-25T12:09:43;7.32;;;1.70;;
26622;SDS011;14254;50.968;5.366;2023-04-25T12:12:17;3.92;;;1.48;;
26622;SDS011;14254;50.968;5.366;2023-04-25T12:14:45;7.20;;;2.83;;
26622;SDS011;14254;50.968;5.366;2023-04-25T12:17:16;4.93;;;1.90;;
26622;SDS011;14254;50.968;5.366;2023-04-25T12:19:42;13.00;;;2.05;;
26622;SDS011;14254;50.968;5.366;2023-04-25T12:22:22;4.38;;;1.70;;
26622;SDS011;14254;50.968;5.366;2023-04-25T12:24:49;9.10;;;2.70;;
26622;SDS011;14254;50.968;5.366;2023-04-25T12:27:16;11.25;;;3.05;;
26622;SDS011;14254;50.968;5.366;2023-04-25T12:29:50;7.63;;;2.45;;
26622;SDS011;14254;50.968;5.366;2023-04-25T12:32:17;6.75;;;2.55;;
26622;SDS011;14254;50.968;5.366;2023-04-25T12:34:43;6.60;;;2.47;;
26622;SDS011;14254;50.968;5.366;2023-04-25T12:37:09;10.10;;;2.78;;
26622;SDS011;14254;50.968;5.366;2023-04-25T12:39:36;9.57;;;2.30;;
26622;SDS011;14254;50.968;5.366;2023-04-25T12:42:02;7.22;;;2.28;;
26622;SDS011;14254;50.968;5.366;2023-04-25T12:44:28;5.70;;;2.13;;
26622;SDS011;14254;50.968;5.366;2023-04-25T12:46:54;5.63;;;2.45;;
26622;SDS011;14254;50.968;5.366;2023-04-25T12:49:20;3.58;;;2.28;;
26622;SDS011;14254;50.968;5.366;2023-04-25T12:51:45;10.20;;;3.05;;
26622;SDS011;14254;50.968;5.366;2023-04-25T12:54:12;9.63;;;2.60;;
26622;SDS011;14254;50.968;5.366;2023-04-25T12:56:39;5.00;;;1.90;;
26622;SDS011;14254;50.968;5.366;2023-04-25T12:59:06;9.93;;;2.20;;
26622;SDS011;14254;50.968;5.366;2023-04-25T13:01:31;9.05;;;2.30;;
26622;SDS011;14254;50.968;5.366;2023-04-25T13:03:57;6.78;;;2.63;;
26622;SDS011;14254;50.968;5.366;2023-04-25T13:06:23;9.00;;;2.40;;
26622;SDS011;14254;50.968;5.366;2023-04-25T13:08:49;8.88;;;2.30;;
26622;SDS011;14254;50.968;5.366;2023-04-25T13:11:15;6.60;;;2.03;;
26622;SDS011;14254;50.968;5.366;2023-04-25T13:13:41;8.88;;;2.42;;
26622;SDS011;14254;50.968;5.366;2023-04-25T13:16:07;5.25;;;1.70;;
26622;SDS011;14254;50.968;5.366;2023-04-25T13:18:33;8.98;;;2.03;;
26622;SDS011;14254;50.968;5.366;2023-04-25T13:21:00;7.65;;;2.17;;
26622;SDS011;14254;50.968;5.366;2023-04-25T13:23:26;6.93;;;2.00;;
26622;SDS011;14254;50.968;5.366;2023-04-25T13:25:53;8.90;;;2.03;;
26622;SDS011;14254;50.968;5.366;2023-04-25T13:28:20;8.02;;;2.03;;
26622;SDS011;14254;50.968;5.366;2023-04-25T13:30:46;6.82;;;2.53;;
26622;SDS011;14254;50.968;5.366;2023-04-25T13:33:13;7.68;;;1.85;;
26622;SDS011;14254;50.968;5.366;2023-04-25T13:35:39;5.82;;;1.95;;
26622;SDS011;14254;50.968;5.366;2023-04-25T13:38:05;8.10;;;2.25;;
26622;SDS011;14254;50.968;5.366;2023-04-25T13:40:31;6.38;;;1.70;;
26622;SDS011;14254;50.968;5.366;2023-04-25T13:42:57;4.15;;;1.98;;
26622;SDS011;14254;50.968;5.366;2023-04-25T13:45:23;6.70;;;1.70;;
26622;SDS011;14254;50.968;5.366;2023-04-25T13:47:48;6.78;;;1.90;;
26622;SDS011;14254;50.968;5.366;2023-04-25T13:50:14;4.53;;;1.70;;
26622;SDS011;14254;50.968;5.366;2023-04-25T13:52:41;7.97;;;2.00;;
26622;SDS011;14254;50.968;5.366;2023-04-25T13:55:07;8.98;;;2.38;;
26622;SDS011;14254;50.968;5.366;2023-04-25T13:57:34;11.00;;;2.13;;
26622;SDS011;14254;50.968;5.366;2023-04-25T14:00:00;6.30;;;2.20;;
26622;SDS011;14254;50.968;5.366;2023-04-25T14:02:32;7.00;;;2.40;;
26622;SDS011;14254;50.968;5.366;2023-04-25T14:04:57;7.57;;;1.83;;
26622;SDS011;14254;50.968;5.366;2023-04-25T14:07:23;4.05;;;1.80;;
26622;SDS011;14254;50.968;5.366;2023-04-25T14:09:49;4.28;;;2.17;;
26622;SDS011;14254;50.968;5.366;2023-04-25T14:12:15;10.13;;;2.30;;
26622;SDS011;14254;50.968;5.366;2023-04-25T14:14:41;9.25;;;2.00;;
26622;SDS011;14254;50.968;5.366;2023-04-25T14:17:07;5.32;;;2.05;;
26622;SDS011;14254;50.968;5.366;2023-04-25T14:19:34;4.07;;;1.60;;
26622;SDS011;14254;50.968;5.366;2023-04-25T14:22:00;5.28;;;2.17;;
26622;SDS011;14254;50.968;5.366;2023-04-25T14:24:25;5.72;;;2.10;;
26622;SDS011;14254;50.968;5.366;2023-04-25T14:26:51;8.43;;;1.98;;
26622;SDS011;14254;50.968;5.366;2023-04-25T14:29:17;7.07;;;1.88;;
26622;SDS011;14254;50.968;5.366;2023-04-25T14:31:42;3.15;;;1.40;;
26622;SDS011;14254;50.968;5.366;2023-04-25T14:34:08;6.55;;;2.08;;
26622;SDS011;14254;50.968;5.366;2023-04-25T14:36:35;14.27;;;2.20;;
26622;SDS011;14254;50.968;5.366;2023-04-25T14:39:01;5.05;;;1.77;;
26622;SDS011;14254;50.968;5.366;2023-04-25T14:41:27;6.53;;;1.77;;
26622;SDS011;14254;50.968;5.366;2023-04-25T14:43:53;7.75;;;2.70;;
26622;SDS011;14254;50.968;5.366;2023-04-25T14:46:19;9.57;;;1.98;;
26622;SDS011;14254;50.968;5.366;2023-04-25T14:48:45;6.10;;;2.30;;
26622;SDS011;14254;50.968;5.366;2023-04-25T14:51:12;9.35;;;2.67;;